Time;durP1;ratioP1;P1;durP2;ratioP2;P2;SDS_P1;SDS_P2;PMS_P1;PMS_P2;Temp;Humidity;BMP_temperature;BMP_pressure;BME280_temperature;BME280_humidity;BME280_pressure;Samples;Min_cycle;Max_cycle;Signal;HPM_P1;HPM_P2
2022/01/11 00:00:09;;;;;;;25.47;11.77;;;-3.40;99.90;;;;;;5094624;28;20188;-55
2022/01/11 00:02:39;;;;;;;25.70;10.93;;;-3.30;99.90;;;;;;5094369;28;20195;-54
2022/01/11 00:05:05;;;;;;;24.70;9.47;;;-3.40;99.90;;;;;;5094598;28;20182;-54
2022/01/11 00:07:33;;;;;;;22.50;8.83;;;-3.40;99.90;;;;;;5094505;28;20272;-55
2022/01/11 00:10:00;;;;;;;26.20;11.70;;;-3.40;99.90;;;;;;5076422;28;20264;-54
2022/01/11 00:12:26;;;;;;;20.00;8.83;;;-3.40;99.90;;;;;;5094436;28;20176;-54
2022/01/11 00:14:52;;;;;;;19.27;8.50;;;-3.40;99.90;;;;;;5094147;28;20177;-54
2022/01/11 00:17:17;;;;;;;27.37;11.70;;;-3.40;99.90;;;;;;5094194;28;20180;-54
2022/01/11 00:19:45;;;;;;;29.37;13.13;;;-3.40;99.90;;;;;;5076063;28;20187;-56
2022/01/11 00:22:18;;;;;;;22.13;9.73;;;-3.50;99.90;;;;;;5094000;28;20241;-53
2022/01/11 00:24:43;;;;;;;21.93;9.20;;;-3.50;99.90;;;;;;5092729;28;20176;-57
2022/01/11 00:27:10;;;;;;;28.73;11.17;;;-3.40;99.90;;;;;;5073415;28;20238;-54
2022/01/11 00:29:40;;;;;;;33.50;12.40;;;-3.40;99.90;;;;;;5073629;28;20213;-54
2022/01/11 00:32:11;;;;;;;27.20;13.47;;;-3.40;99.90;;;;;;5073989;28;20192;-54
2022/01/11 00:34:48;;;;;;;30.20;12.57;;;-3.50;99.90;;;;;;5073586;28;20165;-54
2022/01/11 00:37:16;;;;;;;29.07;11.73;;;-3.50;99.90;;;;;;5073936;28;20180;-58
2022/01/11 00:39:42;;;;;;;29.10;9.93;;;-3.50;99.90;;;;;;5073473;28;20172;-55
2022/01/11 00:42:12;;;;;;;30.17;12.10;;;-3.40;99.90;;;;;;5073435;28;20185;-55
2022/01/11 00:44:38;;;;;;;26.07;11.17;;;-3.40;99.90;;;;;;5073571;28;20169;-57
2022/01/11 00:47:04;;;;;;;29.80;12.40;;;-3.40;99.90;;;;;;5073232;28;20594;-54
2022/01/11 00:49:33;;;;;;;28.23;11.50;;;-3.40;99.90;;;;;;5073040;28;20257;-56
2022/01/11 00:51:59;;;;;;;29.10;12.10;;;-3.30;99.90;;;;;;5072674;28;20184;-52
2022/01/11 00:54:25;;;;;;;29.73;12.90;;;-3.30;99.90;;;;;;5073738;28;20192;-55
2022/01/11 00:56:50;;;;;;;27.10;12.37;;;-3.30;99.90;;;;;;5072795;28;20250;-56
2022/01/11 00:59:16;;;;;;;23.37;11.00;;;-3.30;99.90;;;;;;5091879;28;20191;-54
2022/01/11 01:01:42;;;;;;;25.37;10.07;;;-3.30;99.90;;;;;;5093406;28;20508;-55
2022/01/11 01:04:08;;;;;;;22.00;10.83;;;-3.30;99.90;;;;;;5093559;28;20619;-53
2022/01/11 01:06:35;;;;;;;19.80;9.23;;;-3.40;99.90;;;;;;5092365;28;20225;-54
2022/01/11 01:09:01;;;;;;;21.47;9.73;;;-3.30;99.90;;;;;;5093115;28;20179;-57
2022/01/11 01:11:26;;;;;;;15.40;6.67;;;-3.30;99.90;;;;;;5075139;28;20239;-55
2022/01/11 01:13:52;;;;;;;17.10;7.73;;;-3.30;99.90;;;;;;5092684;28;20596;-55
2022/01/11 01:16:20;;;;;;;19.60;9.17;;;-3.30;99.90;;;;;;5093169;28;20168;-56
2022/01/11 01:18:46;;;;;;;18.20;8.40;;;-3.20;99.90;;;;;;5092740;28;20186;-58
2022/01/11 01:21:11;;;;;;;14.20;6.27;;;-3.20;99.90;;;;;;5093084;28;20187;-55
2022/01/11 01:23:37;;;;;;;18.97;8.13;;;-3.20;99.90;;;;;;5093063;28;20622;-55
2022/01/11 01:26:03;;;;;;;15.47;6.73;;;-3.20;99.90;;;;;;5092329;28;20624;-55
2022/01/11 01:28:29;;;;;;;13.97;6.27;;;-3.30;99.90;;;;;;5071551;28;20253;-54
2022/01/11 01:31:00;;;;;;;20.17;8.07;;;-3.30;99.90;;;;;;5072415;28;20765;-54
2022/01/11 01:33:26;;;;;;;18.90;9.17;;;-3.30;99.90;;;;;;5055435;28;20193;-54
2022/01/11 01:35:59;;;;;;;14.40;6.53;;;-3.30;99.90;;;;;;5072568;28;20179;-53
2022/01/11 01:38:25;;;;;;;18.43;8.90;;;-3.30;99.90;;;;;;5072518;28;20184;-55
2022/01/11 01:40:56;;;;;;;15.43;7.53;;;-3.40;99.90;;;;;;5072642;28;20272;-55
2022/01/11 01:43:24;;;;;;;21.23;8.00;;;-3.40;99.90;;;;;;5072096;28;20558;-56
2022/01/11 01:45:51;;;;;;;12.33;6.47;;;-3.50;99.90;;;;;;5072291;28;20237;-52
2022/01/11 01:48:17;;;;;;;17.80;8.30;;;-3.50;99.90;;;;;;5071925;28;20228;-58
2022/01/11 01:50:43;;;;;;;21.07;9.53;;;-3.40;99.90;;;;;;5071859;28;20227;-68
2022/01/11 01:53:13;;;;;;;18.40;8.67;;;-3.40;99.90;;;;;;5072289;28;20237;-54
2022/01/11 01:55:41;;;;;;;17.83;9.00;;;-3.40;99.90;;;;;;5072465;28;20227;-56
2022/01/11 01:58:08;;;;;;;15.97;6.83;;;-3.40;99.90;;;;;;5080758;28;20167;-58
2022/01/11 02:00:41;;;;;;;20.83;8.43;;;-3.40;99.90;;;;;;5092501;28;20195;-52
2022/01/11 02:03:11;;;;;;;14.33;6.57;;;-3.40;99.90;;;;;;5091930;28;20630;-53
2022/01/11 02:05:38;;;;;;;17.07;7.17;;;-3.40;99.90;;;;;;5092141;28;20564;-55
2022/01/11 02:08:05;;;;;;;10.27;5.17;;;-3.50;99.90;;;;;;5091905;28;20737;-52
2022/01/11 02:10:31;;;;;;;15.37;7.33;;;-3.50;99.90;;;;;;5092349;28;20206;-54
2022/01/11 02:12:58;;;;;;;19.53;6.63;;;-3.50;99.90;;;;;;5092097;28;20249;-52
2022/01/11 02:15:24;;;;;;;17.00;7.77;;;-3.40;99.90;;;;;;5074393;28;20236;-53
2022/01/11 02:17:51;;;;;;;15.33;8.07;;;-3.40;99.90;;;;;;5093491;28;20180;-54
2022/01/11 02:20:17;;;;;;;11.30;5.97;;;-3.50;99.90;;;;;;5077440;28;20194;-50
2022/01/11 02:22:43;;;;;;;14.87;6.93;;;-3.50;99.90;;;;;;5057726;28;20192;-58
2022/01/11 02:25:09;;;;;;;17.20;7.23;;;-3.50;99.90;;;;;;5075226;28;20188;-57
2022/01/11 02:27:35;;;;;;;12.23;5.97;;;-3.50;99.90;;;;;;5075554;28;20188;-55
2022/01/11 02:30:01;;;;;;;16.67;8.07;;;-3.50;99.90;;;;;;5075459;28;20214;-55
2022/01/11 02:32:26;;;;;;;14.90;7.10;;;-3.40;99.90;;;;;;5075617;28;20291;-55
2022/01/11 02:34:52;;;;;;;15.67;6.33;;;-3.40;99.90;;;;;;5075732;28;20463;-55
2022/01/11 02:37:18;;;;;;;15.03;6.80;;;-3.40;99.90;;;;;;5075793;28;20219;-55
2022/01/11 02:39:47;;;;;;;12.93;5.07;;;-3.40;99.90;;;;;;5075700;28;20238;-59
2022/01/11 02:42:13;;;;;;;17.53;6.20;;;-3.40;99.90;;;;;;5075391;28;20230;-55
2022/01/11 02:44:39;;;;;;;14.30;7.80;;;-3.30;99.90;;;;;;5075488;28;20677;-57
2022/01/11 02:47:05;;;;;;;11.50;5.53;;;-3.30;99.90;;;;;;5075470;28;20183;-54
2022/01/11 02:49:31;;;;;;;17.10;8.63;;;-3.30;99.90;;;;;;5075469;28;20664;-55
2022/01/11 02:51:57;;;;;;;16.27;7.87;;;-3.30;99.90;;;;;;5075125;28;20184;-54
2022/01/11 02:54:23;;;;;;;14.20;7.10;;;-3.40;99.90;;;;;;5075436;28;20175;-52
2022/01/11 02:56:49;;;;;;;16.13;6.20;;;-3.40;99.90;;;;;;5075404;28;20183;-57
2022/01/11 02:59:16;;;;;;;15.10;7.00;;;-3.40;99.90;;;;;;5093832;28;20671;-55
2022/01/11 03:01:41;;;;;;;15.40;6.87;;;-3.40;99.90;;;;;;5095685;28;20183;-55
2022/01/11 03:04:07;;;;;;;12.13;5.97;;;-3.40;99.90;;;;;;5095466;28;20611;-54
2022/01/11 03:06:33;;;;;;;13.03;5.63;;;-3.30;99.90;;;;;;5095743;28;20175;-55
2022/01/11 03:08:58;;;;;;;11.97;5.33;;;-3.30;99.90;;;;;;5095379;28;20233;-53
2022/01/11 03:11:31;;;;;;;16.17;7.20;;;-3.30;99.90;;;;;;5095318;28;20548;-54
2022/01/11 03:13:58;;;;;;;16.73;6.90;;;-3.30;99.90;;;;;;5095179;28;20167;-56
2022/01/11 03:16:24;;;;;;;13.70;5.83;;;-3.30;99.90;;;;;;5095131;28;20206;-54
2022/01/11 03:18:49;;;;;;;15.97;7.33;;;-3.20;99.90;;;;;;5095229;28;20208;-55
2022/01/11 03:21:15;;;;;;;18.70;8.73;;;-3.20;99.90;;;;;;5083862;28;20621;-57
2022/01/11 03:23:41;;;;;;;20.70;8.13;;;-3.20;99.90;;;;;;5075167;28;20195;-58
2022/01/11 03:26:07;;;;;;;18.63;7.20;;;-3.20;99.90;;;;;;5074768;28;20181;-55
2022/01/11 03:28:33;;;;;;;17.20;8.33;;;-3.10;99.90;;;;;;5073860;28;20307;-55
2022/01/11 03:31:00;;;;;;;14.57;6.70;;;-3.20;99.90;;;;;;5073900;28;20212;-56
2022/01/11 03:33:26;;;;;;;17.53;7.13;;;-3.20;99.90;;;;;;5074651;28;20254;-57
2022/01/11 03:35:52;;;;;;;16.57;8.10;;;-3.30;99.90;;;;;;5074520;28;20291;-55
2022/01/11 03:38:19;;;;;;;18.27;8.30;;;-3.30;99.90;;;;;;5074818;28;20205;-54
2022/01/11 03:40:45;;;;;;;15.90;6.63;;;-3.30;99.90;;;;;;5075059;28;20254;-54
2022/01/11 03:43:11;;;;;;;13.00;5.80;;;-3.30;99.90;;;;;;5074359;28;20271;-54
2022/01/11 03:45:37;;;;;;;20.23;8.00;;;-3.30;99.90;;;;;;5074540;28;20209;-55
2022/01/11 03:48:06;;;;;;;10.60;5.30;;;-3.30;99.90;;;;;;5073985;28;20234;-55
2022/01/11 03:50:32;;;;;;;9.10;5.33;;;-3.30;99.90;;;;;;5073892;28;20196;-51
2022/01/11 03:53:06;;;;;;;16.73;6.63;;;-3.30;99.90;;;;;;5073656;28;20191;-52
2022/01/11 03:55:46;;;;;;;16.60;7.53;;;-3.20;99.90;;;;;;5074245;28;20158;-54
2022/01/11 03:58:14;;;;;;;13.63;6.80;;;-3.20;99.90;;;;;;5083574;28;20178;-56
2022/01/11 04:00:40;;;;;;;17.93;7.77;;;-3.20;99.90;;;;;;5094326;28;20177;-54
2022/01/11 04:03:05;;;;;;;23.00;8.07;;;-3.30;99.90;;;;;;5075833;28;20332;-55
2022/01/11 04:05:32;;;;;;;15.83;6.17;;;-3.20;99.90;;;;;;5075838;28;20180;-55
2022/01/11 04:07:58;;;;;;;24.53;10.77;;;-3.20;99.90;;;;;;5094098;28;20173;-53
2022/01/11 04:10:23;;;;;;;14.03;5.97;;;-3.20;99.90;;;;;;5093846;28;20208;-54
2022/01/11 04:12:50;;;;;;;17.90;6.70;;;-3.30;99.90;;;;;;5093994;28;20572;-53
2022/01/11 04:15:16;;;;;;;17.20;7.23;;;-3.20;99.90;;;;;;5094014;28;20301;-53
2022/01/11 04:17:42;;;;;;;20.47;8.17;;;-3.30;99.90;;;;;;5093892;28;20195;-56
2022/01/11 04:20:09;;;;;;;18.90;8.10;;;-3.30;99.90;;;;;;5075538;28;20187;-58
2022/01/11 04:22:35;;;;;;;19.27;8.70;;;-3.30;99.90;;;;;;5075418;28;20392;-55
2022/01/11 04:25:01;;;;;;;21.40;11.47;;;-3.30;99.90;;;;;;5074068;28;20184;-55
2022/01/11 04:27:26;;;;;;;23.67;9.33;;;-3.30;99.90;;;;;;5073844;28;20600;-56
2022/01/11 04:29:52;;;;;;;14.63;6.50;;;-3.30;99.90;;;;;;5073084;28;20204;-56
2022/01/11 04:32:18;;;;;;;14.00;5.70;;;-3.30;99.90;;;;;;5073047;28;20679;-59
2022/01/11 04:34:43;;;;;;;23.57;9.37;;;-3.20;99.90;;;;;;5073736;28;20243;-57
2022/01/11 04:37:09;;;;;;;20.43;9.30;;;-3.20;99.90;;;;;;5073510;28;20671;-55
2022/01/11 04:39:35;;;;;;;19.40;9.23;;;-3.20;99.90;;;;;;5073139;28;20183;-55
2022/01/11 04:42:01;;;;;;;20.47;9.27;;;-3.20;99.90;;;;;;5073139;28;20226;-55
2022/01/11 04:44:26;;;;;;;23.40;9.80;;;-3.10;99.90;;;;;;5073189;28;20176;-55
2022/01/11 04:46:52;;;;;;;19.97;9.30;;;-3.10;99.90;;;;;;5072964;28;20196;-63
2022/01/11 04:49:18;;;;;;;20.23;9.33;;;-3.10;99.90;;;;;;5054775;28;20584;-58
2022/01/11 04:51:46;;;;;;;21.90;8.13;;;-3.10;99.90;;;;;;5073002;28;20195;-54
2022/01/11 04:54:12;;;;;;;21.00;8.13;;;-3.10;99.90;;;;;;5072891;28;20267;-55
2022/01/11 04:56:38;;;;;;;15.70;7.63;;;-3.10;99.90;;;;;;5073493;28;20259;-57
2022/01/11 04:59:03;;;;;;;18.60;9.63;;;-3.10;99.90;;;;;;5089871;28;20195;-53
2022/01/11 05:01:30;;;;;;;14.50;7.63;;;-3.10;99.90;;;;;;5093082;28;20175;-53
2022/01/11 05:03:56;;;;;;;18.83;7.20;;;-3.20;99.90;;;;;;5074590;28;20184;-53
2022/01/11 05:06:22;;;;;;;23.27;9.50;;;-3.20;99.90;;;;;;5092479;28;20511;-55
2022/01/11 05:08:48;;;;;;;15.00;7.30;;;-3.10;99.90;;;;;;5092492;28;20209;-62
2022/01/11 05:11:15;;;;;;;17.03;7.80;;;-3.10;99.90;;;;;;5092660;28;20199;-58
2022/01/11 05:13:41;;;;;;;18.67;8.40;;;-3.10;99.90;;;;;;5092556;28;20179;-53
2022/01/11 05:16:08;;;;;;;17.57;8.03;;;-3.10;99.90;;;;;;5092149;28;20172;-58
2022/01/11 05:18:36;;;;;;;17.67;8.17;;;-3.00;99.90;;;;;;5092450;28;20179;-60
2022/01/11 05:21:03;;;;;;;20.47;8.10;;;-3.00;99.90;;;;;;5089518;28;20187;-55
2022/01/11 05:23:29;;;;;;;21.03;8.83;;;-3.00;99.90;;;;;;5071840;28;20172;-57
2022/01/11 05:25:55;;;;;;;12.90;6.33;;;-3.00;99.90;;;;;;5071546;28;20287;-59
2022/01/11 05:28:20;;;;;;;17.20;7.07;;;-3.00;99.90;;;;;;5071107;28;20203;-54
2022/01/11 05:30:46;;;;;;;22.37;8.40;;;-3.00;99.90;;;;;;5071263;28;20671;-55
2022/01/11 05:33:12;;;;;;;19.03;8.60;;;-3.00;99.90;;;;;;5071473;28;20594;-55
2022/01/11 05:35:38;;;;;;;14.37;6.77;;;-3.00;99.90;;;;;;5071705;28;20177;-57
2022/01/11 05:38:04;;;;;;;16.53;7.77;;;-3.00;99.90;;;;;;5071559;28;20234;-51
2022/01/11 05:40:30;;;;;;;14.40;6.67;;;-3.00;99.90;;;;;;5071585;28;20180;-52
2022/01/11 05:42:55;;;;;;;16.93;7.33;;;-3.10;99.90;;;;;;5071340;28;20544;-65
2022/01/11 05:45:21;;;;;;;19.07;8.43;;;-3.10;99.90;;;;;;5071460;28;20177;-55
2022/01/11 05:47:48;;;;;;;19.87;7.93;;;-3.00;99.90;;;;;;5070779;28;20585;-56
2022/01/11 05:50:14;;;;;;;17.83;7.87;;;-3.00;99.90;;;;;;5070814;28;20255;-54
2022/01/11 05:52:42;;;;;;;19.70;7.87;;;-3.10;99.90;;;;;;5052520;28;20188;-56
2022/01/11 05:55:09;;;;;;;18.43;8.17;;;-3.00;99.90;;;;;;5070760;28;20509;-57
2022/01/11 05:57:35;;;;;;;17.87;8.23;;;-3.00;99.90;;;;;;5076146;28;20224;-58
2022/01/11 06:00:04;;;;;;;16.37;6.30;;;-3.00;99.90;;;;;;5072496;28;20187;-57
2022/01/11 06:02:30;;;;;;;21.93;8.87;;;-2.90;99.90;;;;;;5091474;28;20603;-61
2022/01/11 06:04:55;;;;;;;18.93;9.10;;;-2.80;99.90;;;;;;5091126;28;20556;-63
2022/01/11 06:07:21;;;;;;;17.27;8.10;;;-2.90;99.90;;;;;;5090946;28;20255;-64
2022/01/11 06:09:47;;;;;;;17.10;7.73;;;-2.90;99.90;;;;;;5072922;28;20219;-62
2022/01/11 06:12:12;;;;;;;19.33;8.33;;;-2.80;99.90;;;;;;5090825;28;20247;-61
2022/01/11 06:14:38;;;;;;;15.73;8.43;;;-2.80;99.90;;;;;;5090747;28;20169;-60
2022/01/11 06:17:04;;;;;;;13.13;6.07;;;-2.80;99.90;;;;;;5069444;28;20271;-61
2022/01/11 06:19:31;;;;;;;20.73;9.07;;;-2.90;99.90;;;;;;5069812;28;20286;-59
2022/01/11 06:21:58;;;;;;;14.77;6.87;;;-2.90;99.90;;;;;;5068675;28;20235;-59
2022/01/11 06:24:24;;;;;;;23.80;9.67;;;-3.00;99.90;;;;;;5051842;28;20620;-60
2022/01/11 06:26:49;;;;;;;17.60;8.90;;;-3.00;99.90;;;;;;5069535;28;20185;-60
2022/01/11 06:29:15;;;;;;;21.13;10.20;;;-2.90;99.90;;;;;;5063529;28;20279;-58
2022/01/11 06:31:41;;;;;;;15.13;7.13;;;-3.00;99.90;;;;;;5050771;28;20200;-62
2022/01/11 06:34:07;;;;;;;22.10;9.47;;;-2.90;99.90;;;;;;5068286;28;20197;-60
2022/01/11 06:36:32;;;;;;;21.87;8.47;;;-2.90;99.90;;;;;;5068136;28;20235;-58
2022/01/11 06:38:59;;;;;;;21.30;8.97;;;-2.90;99.90;;;;;;5068750;28;20268;-66
2022/01/11 06:41:24;;;;;;;24.77;10.33;;;-2.90;99.90;;;;;;5067067;28;20189;-60
2022/01/11 06:43:52;;;;;;;21.97;9.83;;;-2.90;99.90;;;;;;5067803;28;20188;-60
2022/01/11 06:46:18;;;;;;;24.30;10.90;;;-2.90;99.90;;;;;;5067645;28;20220;-63
2022/01/11 06:48:44;;;;;;;17.10;8.10;;;-2.90;99.90;;;;;;5068785;28;20310;-64
2022/01/11 06:51:11;;;;;;;22.27;9.03;;;-2.90;99.90;;;;;;5069669;28;20288;-62
2022/01/11 06:53:37;;;;;;;22.30;9.70;;;-2.90;99.90;;;;;;5051664;28;20207;-63
2022/01/11 06:56:03;;;;;;;24.00;9.80;;;-2.90;99.90;;;;;;5068489;28;20192;-63
2022/01/11 06:58:29;;;;;;;18.33;7.70;;;-2.90;99.90;;;;;;5069220;28;20642;-59
2022/01/11 07:00:55;;;;;;;17.87;7.77;;;-2.90;99.90;;;;;;5068885;28;20223;-62
2022/01/11 07:03:20;;;;;;;23.07;10.37;;;-2.90;99.90;;;;;;5069891;28;20188;-62
2022/01/11 07:05:46;;;;;;;17.43;7.13;;;-3.00;99.90;;;;;;5073668;28;20627;-61
2022/01/11 07:08:12;;;;;;;25.90;10.20;;;-3.00;99.90;;;;;;5055710;28;20318;-60
2022/01/11 07:10:38;;;;;;;22.63;9.83;;;-3.00;99.90;;;;;;5073599;28;20210;-61
2022/01/11 07:13:04;;;;;;;25.57;10.00;;;-2.90;99.90;;;;;;5072083;28;20636;-69
2022/01/11 07:15:31;;;;;;;21.23;9.80;;;-2.80;99.90;;;;;;5072401;28;20193;-62
2022/01/11 07:17:57;;;;;;;16.63;7.57;;;-2.80;99.90;;;;;;5054763;28;20612;-61
2022/01/11 07:20:23;;;;;;;23.57;9.27;;;-2.70;99.90;;;;;;5072916;28;20211;-58
2022/01/11 07:22:49;;;;;;;19.63;8.57;;;-2.80;99.90;;;;;;5054823;28;20184;-54
2022/01/11 07:25:16;;;;;;;19.00;8.00;;;-2.80;99.90;;;;;;5072678;28;20193;-54
2022/01/11 07:27:41;;;;;;;24.47;10.87;;;-2.90;99.90;;;;;;5071840;28;20651;-55
2022/01/11 07:30:09;;;;;;;21.80;9.50;;;-2.80;99.90;;;;;;5071570;28;20198;-50
2022/01/11 07:32:35;;;;;;;22.73;10.00;;;-2.80;99.90;;;;;;5072402;28;20259;-57
2022/01/11 07:35:05;;;;;;;21.73;10.13;;;-2.80;99.90;;;;;;5072407;28;20192;-58
2022/01/11 07:37:31;;;;;;;23.10;10.40;;;-2.80;99.90;;;;;;5071922;28;20710;-63
2022/01/11 07:39:56;;;;;;;27.53;11.77;;;-2.90;99.90;;;;;;5071900;28;20282;-55
2022/01/11 07:42:22;;;;;;;23.33;10.40;;;-2.80;99.90;;;;;;5070051;28;20260;-56
2022/01/11 07:44:51;;;;;;;23.50;8.77;;;-2.80;99.90;;;;;;5071027;28;20266;-51
2022/01/11 07:47:19;;;;;;;24.53;10.20;;;-2.80;99.90;;;;;;5054284;28;20243;-61
2022/01/11 07:49:44;;;;;;;26.93;10.67;;;-2.80;99.90;;;;;;5070295;28;20247;-52
2022/01/11 07:52:10;;;;;;;26.00;10.77;;;-2.80;99.90;;;;;;5071855;28;20184;-59
2022/01/11 07:54:36;;;;;;;17.07;8.47;;;-2.80;99.90;;;;;;5071074;28;20209;-57
2022/01/11 07:57:02;;;;;;;21.43;9.70;;;-2.80;99.90;;;;;;5069873;28;20314;-55
2022/01/11 07:59:28;;;;;;;28.57;11.90;;;-2.80;99.90;;;;;;5070021;28;20207;-52
2022/01/11 08:01:53;;;;;;;26.17;12.53;;;-2.80;99.90;;;;;;5068506;28;20475;-55
2022/01/11 08:04:19;;;;;;;23.27;11.20;;;-2.80;99.90;;;;;;5051908;28;20219;-56
2022/01/11 08:06:45;;;;;;;20.20;9.00;;;-2.80;99.90;;;;;;5069731;28;20193;-57
2022/01/11 08:09:12;;;;;;;18.60;8.53;;;-2.90;99.90;;;;;;5069588;28;20224;-57
2022/01/11 08:11:38;;;;;;;20.60;9.33;;;-2.90;99.90;;;;;;5070112;28;20235;-57
2022/01/11 08:14:04;;;;;;;21.97;9.30;;;-2.90;99.90;;;;;;5051923;28;20238;-65
2022/01/11 08:16:30;;;;;;;21.43;10.17;;;-2.90;99.90;;;;;;5070659;28;20193;-54
2022/01/11 08:18:55;;;;;;;19.67;6.50;;;-2.90;99.90;;;;;;5052344;28;20205;-56
2022/01/11 08:21:21;;;;;;;23.83;8.90;;;-3.00;99.90;;;;;;5071355;28;20211;-59
2022/01/11 08:23:47;;;;;;;29.47;10.97;;;-3.00;99.90;;;;;;5071766;28;20192;-52
2022/01/11 08:26:13;;;;;;;20.90;10.00;;;-2.90;99.90;;;;;;5053476;28;20739;-53
2022/01/11 08:28:39;;;;;;;15.20;7.30;;;-2.80;99.90;;;;;;5075093;28;20235;-55
2022/01/11 08:31:05;;;;;;;23.77;9.87;;;-2.90;99.90;;;;;;5090327;28;20699;-66
2022/01/11 08:33:31;;;;;;;32.90;11.80;;;-2.90;99.90;;;;;;5090494;28;20192;-53
2022/01/11 08:35:56;;;;;;;14.13;7.27;;;-2.80;99.90;;;;;;5091998;28;20262;-60
2022/01/11 08:38:22;;;;;;;23.73;10.13;;;-2.80;99.90;;;;;;5092288;28;20549;-53
2022/01/11 08:40:48;;;;;;;20.60;8.67;;;-2.80;99.90;;;;;;5092262;28;20207;-56
2022/01/11 08:43:14;;;;;;;22.33;9.33;;;-2.80;99.90;;;;;;5057456;28;20236;-53
2022/01/11 08:45:40;;;;;;;16.33;7.57;;;-2.90;99.90;;;;;;5092383;28;20630;-51
2022/01/11 08:48:06;;;;;;;17.33;7.20;;;-3.00;99.90;;;;;;5069817;28;20237;-61
2022/01/11 08:50:32;;;;;;;16.23;7.13;;;-2.90;99.90;;;;;;5071009;28;20292;-54
2022/01/11 08:52:57;;;;;;;30.97;11.80;;;-2.90;99.90;;;;;;5070062;28;20588;-56
2022/01/11 08:55:24;;;;;;;18.30;7.37;;;-2.90;99.90;;;;;;5069670;28;20185;-55
2022/01/11 08:57:50;;;;;;;22.23;9.33;;;-2.80;99.90;;;;;;5071984;28;20212;-57
2022/01/11 09:00:18;;;;;;;17.60;8.50;;;-2.80;99.90;;;;;;5071344;28;20196;-55
2022/01/11 09:02:50;;;;;;;17.03;6.50;;;-2.80;99.90;;;;;;5070144;28;20268;-53
2022/01/11 09:05:17;;;;;;;26.97;8.27;;;-2.80;99.90;;;;;;5070208;28;20219;-55
2022/01/11 09:07:43;;;;;;;20.63;8.60;;;-2.80;99.90;;;;;;5071410;28;20271;-56
2022/01/11 09:10:10;;;;;;;11.87;5.43;;;-2.80;99.90;;;;;;5071333;28;20215;-55
2022/01/11 09:12:36;;;;;;;29.03;8.13;;;-2.90;99.90;;;;;;5072068;28;20251;-55
2022/01/11 09:15:04;;;;;;;24.53;8.47;;;-2.90;99.90;;;;;;5069832;28;20185;-53
2022/01/11 09:17:30;;;;;;;25.30;9.43;;;-2.80;99.90;;;;;;5071569;28;20185;-56
2022/01/11 09:19:56;;;;;;;28.70;10.00;;;-2.80;99.90;;;;;;5070339;28;20261;-55
2022/01/11 09:22:22;;;;;;;24.20;9.33;;;-2.80;99.90;;;;;;5071424;28;20181;-53
2022/01/11 09:24:48;;;;;;;26.53;9.53;;;-2.80;99.90;;;;;;5070907;28;20185;-53
2022/01/11 09:27:14;;;;;;;22.17;9.37;;;-2.80;99.90;;;;;;5070736;28;20191;-57
2022/01/11 09:29:41;;;;;;;19.00;6.53;;;-2.70;99.90;;;;;;5070764;28;20184;-52
2022/01/11 09:32:08;;;;;;;20.03;8.70;;;-2.70;99.90;;;;;;5071327;28;20189;-62
2022/01/11 09:34:38;;;;;;;18.10;7.70;;;-2.80;99.90;;;;;;5069640;28;20185;-55
2022/01/11 09:37:05;;;;;;;24.10;8.10;;;-2.80;99.90;;;;;;5071355;28;20225;-56
2022/01/11 09:39:31;;;;;;;26.33;10.07;;;-2.90;99.90;;;;;;5070880;28;20176;-51
2022/01/11 09:41:59;;;;;;;23.50;8.20;;;-2.90;99.90;;;;;;5070912;28;20510;-51
2022/01/11 09:44:25;;;;;;;21.57;10.20;;;-2.90;99.90;;;;;;5070769;28;20675;-53
2022/01/11 09:46:53;;;;;;;23.40;8.93;;;-2.80;99.90;;;;;;5053154;28;20185;-55
2022/01/11 09:49:19;;;;;;;27.33;11.03;;;-2.80;99.90;;;;;;5066195;28;20229;-57
2022/01/11 09:51:45;;;;;;;27.77;11.70;;;-2.90;99.90;;;;;;5070766;28;20224;-60
2022/01/11 09:54:12;;;;;;;25.17;10.97;;;-2.90;99.90;;;;;;5070448;28;20576;-53
2022/01/11 09:56:38;;;;;;;23.73;11.13;;;-2.90;99.90;;;;;;5071171;28;20245;-54
2022/01/11 09:59:05;;;;;;;22.33;10.33;;;-2.80;99.90;;;;;;5070698;28;20177;-56
2022/01/11 10:01:31;;;;;;;22.83;11.00;;;-2.80;99.90;;;;;;5052781;28;20223;-56
2022/01/11 10:04:04;;;;;;;26.10;11.53;;;-2.80;99.90;;;;;;5035378;28;20186;-50
2022/01/11 10:06:31;;;;;;;24.30;10.53;;;-2.90;99.90;;;;;;5070445;28;20250;-59
2022/01/11 10:09:18;;;;;;;23.47;10.40;;;-2.80;99.90;;;;;;5070133;28;20644;-56
2022/01/11 10:11:50;;;;;;;24.67;11.70;;;-2.80;99.90;;;;;;5070430;28;20192;-52
2022/01/11 10:14:34;;;;;;;25.67;11.20;;;-2.80;99.90;;;;;;5070430;28;20651;-59
2022/01/11 10:17:10;;;;;;;22.83;10.33;;;-2.70;99.90;;;;;;5070299;28;20211;-56
2022/01/11 10:19:39;;;;;;;23.77;9.57;;;-2.70;99.90;;;;;;5070614;28;20267;-54
2022/01/11 10:22:07;;;;;;;22.13;9.40;;;-2.80;99.90;;;;;;5070470;28;20656;-51
2022/01/11 10:24:39;;;;;;;16.07;7.80;;;-2.90;99.90;;;;;;5069982;28;20234;-55
2022/01/11 10:27:17;;;;;;;27.97;10.37;;;-2.90;99.90;;;;;;5070254;28;20195;-56
2022/01/11 10:29:45;;;;;;;16.57;7.73;;;-2.90;99.90;;;;;;5083453;28;20174;-55
2022/01/11 10:32:45;;;;;;;15.77;7.00;;;-2.80;99.90;;;;;;5090955;28;20268;-58
2022/01/11 10:35:20;;;;;;;27.50;10.57;;;-2.80;99.90;;;;;;5085439;28;20200;-60
2022/01/11 10:37:50;;;;;;;22.43;10.47;;;-2.80;99.90;;;;;;5090774;28;20225;-53
2022/01/11 10:40:34;;;;;;;24.50;10.20;;;-2.80;99.90;;;;;;5094233;28;20233;-52
2022/01/11 10:43:12;;;;;;;27.07;10.30;;;-2.80;99.90;;;;;;5094514;28;20221;-57
2022/01/11 10:45:44;;;;;;;24.77;9.63;;;-2.90;99.90;;;;;;5090192;28;20248;-58
2022/01/11 10:48:14;;;;;;;21.27;9.40;;;-2.90;99.90;;;;;;5074238;28;20237;-53
2022/01/11 10:50:42;;;;;;;21.17;9.90;;;-2.90;99.90;;;;;;5074527;28;20251;-53
2022/01/11 10:53:11;;;;;;;30.43;12.07;;;-2.80;99.90;;;;;;5074234;28;20687;-55
2022/01/11 10:55:37;;;;;;;29.83;11.70;;;-2.70;99.90;;;;;;5073561;28;20227;-55
2022/01/11 10:58:06;;;;;;;25.60;11.33;;;-2.60;99.90;;;;;;5055942;28;20619;-54
2022/01/11 11:00:41;;;;;;;18.23;8.17;;;-2.50;99.90;;;;;;5073831;28;20177;-56
2022/01/11 11:03:14;;;;;;;15.90;6.27;;;-2.50;99.90;;;;;;5073638;28;20173;-57
2022/01/11 11:05:58;;;;;;;27.57;8.83;;;-2.60;99.90;;;;;;5073997;28;20276;-51
2022/01/11 11:08:27;;;;;;;15.40;7.53;;;-2.70;99.90;;;;;;5073753;28;20173;-54
2022/01/11 11:10:56;;;;;;;19.00;7.87;;;-2.80;99.90;;;;;;5073805;28;20240;-55
2022/01/11 11:13:25;;;;;;;16.20;6.73;;;-2.70;99.90;;;;;;5073506;28;20178;-57
2022/01/11 11:15:53;;;;;;;21.10;8.13;;;-2.70;99.90;;;;;;5073636;28;20176;-54
2022/01/11 11:18:26;;;;;;;22.87;7.40;;;-2.60;99.90;;;;;;5073202;28;20258;-53
2022/01/11 11:20:52;;;;;;;22.37;7.80;;;-2.70;99.90;;;;;;5073458;28;20246;-53
2022/01/11 11:23:18;;;;;;;20.20;8.10;;;-2.60;99.90;;;;;;5073342;28;20574;-55
2022/01/11 11:25:44;;;;;;;18.63;6.50;;;-2.60;99.90;;;;;;5073646;28;20193;-55
2022/01/11 11:28:10;;;;;;;21.33;6.60;;;-2.70;99.90;;;;;;5079324;28;20184;-57
2022/01/11 11:30:36;;;;;;;18.97;8.33;;;-2.70;99.90;;;;;;5073935;28;20766;-55
2022/01/11 11:33:02;;;;;;;22.23;9.30;;;-2.80;99.90;;;;;;5093550;28;20527;-58
2022/01/11 11:35:29;;;;;;;28.50;9.33;;;-2.70;99.90;;;;;;5092504;28;20525;-56
2022/01/11 11:38:00;;;;;;;25.60;8.73;;;-2.70;99.90;;;;;;5093432;28;20602;-54
2022/01/11 11:40:27;;;;;;;24.80;8.67;;;-2.70;99.90;;;;;;5093443;28;20161;-55
2022/01/11 11:42:58;;;;;;;23.27;8.73;;;-2.70;99.90;;;;;;5093603;28;20981;-58
2022/01/11 11:45:27;;;;;;;10.57;6.00;;;-2.70;99.90;;;;;;5093825;28;20217;-56
2022/01/11 11:48:06;;;;;;;23.67;8.33;;;-2.80;99.90;;;;;;5072474;28;20410;-54
2022/01/11 11:50:33;;;;;;;18.83;8.50;;;-2.90;99.90;;;;;;5071991;28;20295;-55
2022/01/11 11:52:59;;;;;;;18.47;8.87;;;-3.00;99.90;;;;;;5072327;28;20184;-57
2022/01/11 11:55:31;;;;;;;23.70;8.93;;;-3.00;99.90;;;;;;5072720;28;20188;-59
2022/01/11 11:58:00;;;;;;;21.10;9.20;;;-3.00;99.90;;;;;;5055398;28;20624;-53
2022/01/11 12:00:32;;;;;;;20.20;8.80;;;-3.00;99.90;;;;;;5072334;28;20189;-50
2022/01/11 12:03:00;;;;;;;25.67;9.23;;;-3.00;99.90;;;;;;5054315;28;20188;-53
2022/01/11 12:05:33;;;;;;;25.97;9.43;;;-3.00;99.90;;;;;;5054113;28;20188;-55
2022/01/11 12:08:30;;;;;;;17.67;9.00;;;-3.00;99.90;;;;;;5072982;28;20208;-56
2022/01/11 12:11:10;;;;;;;23.73;9.13;;;-3.00;99.90;;;;;;5072934;28;20259;-54
2022/01/11 12:13:43;;;;;;;25.90;8.67;;;-3.00;99.90;;;;;;5073136;28;20333;-53
2022/01/11 12:16:24;;;;;;;22.20;10.27;;;-3.10;99.90;;;;;;5073447;28;20173;-54
2022/01/11 12:18:54;;;;;;;31.23;10.17;;;-3.10;99.90;;;;;;5073077;28;20687;-57
2022/01/11 12:21:21;;;;;;;25.80;10.93;;;-3.10;99.90;;;;;;5054003;28;20197;-58
2022/01/11 12:23:49;;;;;;;23.83;9.70;;;-3.10;99.90;;;;;;5054224;28;20188;-55
2022/01/11 12:26:27;;;;;;;22.90;9.27;;;-3.10;99.90;;;;;;5072338;28;20184;-52
2022/01/11 12:29:02;;;;;;;17.13;7.63;;;-3.30;99.90;;;;;;5078910;28;20179;-55
2022/01/11 12:31:33;;;;;;;21.30;8.87;;;-3.30;99.90;;;;;;5092799;28;20293;-53
2022/01/11 12:33:59;;;;;;;22.53;10.00;;;-3.30;99.90;;;;;;5092694;28;20183;-56
2022/01/11 12:36:50;;;;;;;27.73;10.43;;;-3.30;99.90;;;;;;5092508;28;20215;-51